Time;durP1;ratioP1;P1;durP2;ratioP2;P2;SDS_P1;SDS_P2;PMS_P1;PMS_P2;Temp;Humidity;BMP_temperature;BMP_pressure;BME280_temperature;BME280_humidity;BME280_pressure;Samples;Min_cycle;Max_cycle;Signal;HPM_P1;HPM_P2
2024/04/11 00:00:08;;;;;;;3.83;1.38;;;13.10;62.10;;;;;;5369492;26;20004;-66
2024/04/11 00:02:34;;;;;;;4.47;1.08;;;13.10;62.10;;;;;;5367640;26;20016;-66
2024/04/11 00:04:59;;;;;;;4.30;1.33;;;13.10;62.00;;;;;;5357130;26;20341;-64
2024/04/11 00:07:25;;;;;;;3.50;1.20;;;13.10;62.10;;;;;;5360052;26;20351;-64
2024/04/11 00:09:50;;;;;;;3.53;1.40;;;13.10;62.20;;;;;;5370506;26;20011;-65
2024/04/11 00:12:16;;;;;;;3.42;1.15;;;13.10;62.10;;;;;;5358969;26;20012;-65
2024/04/11 00:14:43;;;;;;;4.65;1.17;;;13.10;62.20;;;;;;5363318;26;20005;-65
2024/04/11 00:17:08;;;;;;;3.78;1.30;;;13.20;62.20;;;;;;5359167;26;20001;-65
2024/04/11 00:19:35;;;;;;;3.97;1.40;;;13.20;62.30;;;;;;5362699;26;20001;-63
2024/04/11 00:22:01;;;;;;;2.65;1.00;;;13.10;62.40;;;;;;5356456;26;19996;-64
2024/04/11 00:24:27;;;;;;;2.80;1.05;;;13.10;62.40;;;;;;5355802;26;20019;-65
2024/04/11 00:26:52;;;;;;;6.28;1.30;;;13.10;62.40;;;;;;5364242;26;20453;-66
2024/04/11 00:29:18;;;;;;;4.68;1.15;;;13.10;62.30;;;;;;5364371;26;20000;-64
2024/04/11 00:31:44;;;;;;;3.03;1.00;;;13.10;62.40;;;;;;5370268;26;20001;-65
2024/04/11 00:34:23;;;;;;;3.80;1.20;;;13.10;62.40;;;;;;5353411;26;20000;-64
2024/04/11 00:36:53;;;;;;;2.08;0.90;;;13.10;62.30;;;;;;5349456;26;20005;-65
2024/04/11 00:39:20;;;;;;;2.45;0.90;;;13.20;62.40;;;;;;5357746;26;19996;-66
2024/04/11 00:41:46;;;;;;;1.83;1.10;;;13.20;62.40;;;;;;5349031;26;20022;-65
2024/04/11 00:44:12;;;;;;;3.97;1.10;;;13.20;62.40;;;;;;5346687;26;20001;-64
2024/04/11 00:46:39;;;;;;;2.38;0.80;;;13.20;62.40;;;;;;5352078;26;20008;-66
2024/04/11 00:49:05;;;;;;;4.05;1.20;;;13.20;62.40;;;;;;5356391;26;20426;-65
2024/04/11 00:51:31;;;;;;;2.53;0.82;;;13.20;62.20;;;;;;5346522;26;20009;-65
2024/04/11 00:53:58;;;;;;;3.53;1.05;;;13.20;62.30;;;;;;5367533;26;20014;-64
2024/04/11 00:56:28;;;;;;;2.58;0.98;;;13.20;62.40;;;;;;5366192;26;20013;-65
2024/04/11 00:58:54;;;;;;;4.57;1.20;;;13.20;62.40;;;;;;5352728;26;20426;-65
2024/04/11 01:17:51;;;;;;;3.03;1.02;;;13.20;62.60;;;;;;5361330;26;20004;-64
2024/04/11 01:20:17;;;;;;;3.72;1.10;;;13.20;62.90;;;;;;5363671;26;20012;-63
2024/04/11 01:22:42;;;;;;;4.47;1.45;;;13.10;62.80;;;;;;5359533;26;20647;-66
2024/04/11 01:25:08;;;;;;;4.60;1.27;;;13.10;63.00;;;;;;5366086;26;20335;-64
2024/04/11 01:27:35;;;;;;;5.00;1.20;;;13.10;63.10;;;;;;5363914;26;20024;-64
2024/04/11 01:30:02;;;;;;;4.03;1.10;;;13.10;63.10;;;;;;5354655;26;20005;-65
2024/04/11 01:32:28;;;;;;;4.78;1.10;;;13.10;63.10;;;;;;5359283;26;20073;-66
2024/04/11 01:34:56;;;;;;;3.17;0.90;;;13.20;63.10;;;;;;5361102;26;20056;-65
2024/04/11 01:37:22;;;;;;;1.77;0.70;;;13.20;63.10;;;;;;5357666;26;20589;-66
2024/04/11 01:39:48;;;;;;;4.50;1.25;;;13.20;63.00;;;;;;5356685;26;20055;-65
2024/04/11 01:42:13;;;;;;;4.25;1.20;;;13.20;63.00;;;;;;5366843;26;20039;-64
2024/04/11 01:44:39;;;;;;;3.00;1.10;;;13.20;63.00;;;;;;5366465;26;20129;-65
2024/04/11 01:47:05;;;;;;;2.70;1.10;;;13.20;63.00;;;;;;5349233;26;20101;-65
2024/04/11 01:49:34;;;;;;;2.10;1.00;;;13.20;63.00;;;;;;5357285;26;20752;-65
2024/04/11 01:52:09;;;;;;;1.88;1.00;;;13.30;63.00;;;;;;5363505;26;20012;-65
2024/04/11 01:54:39;;;;;;;2.03;1.20;;;13.30;63.00;;;;;;5357185;26;19997;-65
2024/04/11 01:57:06;;;;;;;5.15;1.45;;;13.30;62.90;;;;;;5370891;26;20655;-65
2024/04/11 01:59:33;;;;;;;3.38;1.13;;;13.30;63.00;;;;;;5370524;26;20028;-64
2024/04/11 02:01:58;;;;;;;2.08;1.20;;;13.30;63.00;;;;;;5361831;26;20009;-65
2024/04/11 02:04:30;;;;;;;6.30;1.20;;;13.30;63.00;;;;;;5363995;26;20016;-65
2024/04/11 02:06:56;;;;;;;2.08;0.70;;;13.40;63.00;;;;;;5363852;26;20000;-65
2024/04/11 02:09:23;;;;;;;2.03;1.00;;;13.40;63.00;;;;;;5352631;26;20005;-66
2024/04/11 02:11:51;;;;;;;3.05;0.85;;;13.40;63.00;;;;;;5355239;26;20474;-66
2024/04/11 02:14:18;;;;;;;2.70;0.90;;;13.40;63.00;;;;;;5358535;26;20432;-65
2024/04/11 02:16:44;;;;;;;2.10;1.10;;;13.40;63.00;;;;;;5366232;26;20020;-65
2024/04/11 02:19:12;;;;;;;5.55;1.20;;;13.40;63.00;;;;;;5363502;26;20023;-65
2024/04/11 02:21:40;;;;;;;3.45;1.10;;;13.40;63.00;;;;;;5361813;26;20001;-65
2024/04/11 02:24:07;;;;;;;3.97;1.15;;;13.40;63.00;;;;;;5362922;26;20028;-64
2024/04/11 02:26:34;;;;;;;3.50;0.90;;;13.40;63.00;;;;;;5365250;26;19996;-65
2024/04/11 02:29:01;;;;;;;2.85;1.00;;;13.40;62.90;;;;;;5376409;26;20007;-64
2024/04/11 02:31:27;;;;;;;4.03;1.00;;;13.50;63.00;;;;;;5371777;26;20008;-66
2024/04/11 02:33:53;;;;;;;2.45;1.00;;;13.40;62.90;;;;;;5371701;26;20343;-64
2024/04/11 02:36:20;;;;;;;3.53;1.00;;;13.40;62.90;;;;;;5361091;26;19992;-65
2024/04/11 02:38:45;;;;;;;1.65;1.15;;;13.50;62.90;;;;;;5362404;26;20000;-66
2024/04/11 02:41:11;;;;;;;2.78;1.42;;;13.50;62.90;;;;;;5355152;26;20000;-66
2024/04/11 02:43:39;;;;;;;1.90;1.20;;;13.50;62.90;;;;;;5357750;26;20014;-63
2024/04/11 02:46:15;;;;;;;2.83;0.95;;;13.50;62.90;;;;;;5366954;26;19997;-63
2024/04/11 02:48:44;;;;;;;1.70;0.80;;;13.50;62.90;;;;;;5365555;26;20000;-63
2024/04/11 02:51:10;;;;;;;4.70;1.10;;;13.50;62.80;;;;;;5371457;26;20009;-64
2024/04/11 02:53:38;;;;;;;4.28;1.15;;;13.50;62.80;;;;;;5365520;26;20004;-64
2024/04/11 02:56:07;;;;;;;2.72;1.00;;;13.50;62.80;;;;;;5362036;26;20004;-65
2024/04/11 02:58:34;;;;;;;2.92;1.00;;;13.50;62.80;;;;;;5368680;26;20004;-64
2024/04/11 03:01:00;;;;;;;1.65;0.90;;;13.50;62.80;;;;;;5363849;26;20000;-64
2024/04/11 03:03:25;;;;;;;2.50;1.30;;;13.60;62.90;;;;;;5360264;26;20529;-64
2024/04/11 03:05:51;;;;;;;3.58;1.10;;;13.50;63.50;;;;;;5370120;26;20000;-65
2024/04/11 03:08:17;;;;;;;3.05;0.98;;;13.50;62.90;;;;;;5372178;26;21201;-63
2024/04/11 03:10:42;;;;;;;2.50;0.98;;;13.40;62.90;;;;;;5359017;26;20866;-64
2024/04/11 03:13:08;;;;;;;2.92;1.00;;;13.50;62.90;;;;;;5373350;26;20338;-64
2024/04/11 03:15:34;;;;;;;4.22;1.40;;;13.50;63.00;;;;;;5366259;26;20010;-65
2024/04/11 03:18:00;;;;;;;3.50;1.13;;;13.50;63.10;;;;;;5364379;26;19996;-64
2024/04/11 03:20:25;;;;;;;3.70;1.20;;;13.50;63.20;;;;;;5353323;26;20333;-66
2024/04/11 03:22:51;;;;;;;3.38;1.17;;;13.50;63.10;;;;;;5379763;26;20057;-65
2024/04/11 03:25:17;;;;;;;1.85;0.80;;;13.50;63.10;;;;;;5359249;26;19996;-64
2024/04/11 03:27:42;;;;;;;4.40;1.00;;;13.60;63.20;;;;;;5358815;26;20001;-64
2024/04/11 03:30:08;;;;;;;2.45;1.00;;;13.50;63.10;;;;;;5364372;26;20098;-64
2024/04/11 03:32:33;;;;;;;2.75;1.00;;;13.50;63.20;;;;;;5360636;26;20267;-65
2024/04/11 03:34:59;;;;;;;5.10;1.40;;;13.60;63.20;;;;;;5354674;26;20000;-64
2024/04/11 03:37:26;;;;;;;3.53;1.30;;;13.50;63.20;;;;;;5370355;26;20024;-64
2024/04/11 03:39:52;;;;;;;1.85;0.82;;;13.60;63.30;;;;;;5349936;26;20005;-65
2024/04/11 03:42:18;;;;;;;2.95;0.90;;;13.50;63.30;;;;;;5367158;26;20364;-63
2024/04/11 03:44:48;;;;;;;3.40;1.08;;;13.60;63.40;;;;;;5356729;26;20048;-63
2024/04/11 03:47:14;;;;;;;3.35;1.25;;;13.50;63.40;;;;;;5354021;26;20008;-64
2024/04/11 03:49:39;;;;;;;4.80;1.40;;;13.50;63.50;;;;;;5357946;26;20336;-65
2024/04/11 03:52:06;;;;;;;4.22;1.33;;;13.50;63.60;;;;;;5366642;26;20000;-64
2024/04/11 03:54:32;;;;;;;6.32;1.75;;;13.50;63.60;;;;;;5355911;26;20072;-66
2024/04/11 03:56:58;;;;;;;5.80;1.38;;;13.50;63.70;;;;;;5357161;26;20029;-65
2024/04/11 03:59:25;;;;;;;4.82;1.52;;;13.40;63.80;;;;;;5361629;26;20069;-64
2024/04/11 04:01:51;;;;;;;3.95;1.20;;;13.40;63.90;;;;;;5353971;26;20396;-66
2024/04/11 04:04:19;;;;;;;3.42;0.90;;;13.40;63.90;;;;;;5371381;26;20004;-65
2024/04/11 04:06:46;;;;;;;1.52;0.90;;;13.40;64.60;;;;;;5364243;26;20015;-63
2024/04/11 04:09:11;;;;;;;2.70;1.08;;;13.50;63.90;;;;;;5367277;26;21112;-64
2024/04/11 04:11:38;;;;;;;4.55;1.10;;;13.50;63.90;;;;;;5365833;26;19996;-64
2024/04/11 04:14:08;;;;;;;1.70;1.08;;;13.50;63.90;;;;;;5347060;26;20012;-64
2024/04/11 04:16:35;;;;;;;4.40;1.08;;;13.50;64.00;;;;;;5366689;26;20013;-64
2024/04/11 04:19:02;;;;;;;3.45;1.00;;;13.50;64.10;;;;;;5369064;26;20491;-65
2024/04/11 04:21:28;;;;;;;2.70;0.98;;;13.40;64.30;;;;;;5361662;26;19992;-64
2024/04/11 04:24:02;;;;;;;4.90;1.20;;;13.40;64.40;;;;;;5365990;26;20000;-64
2024/04/11 04:26:30;;;;;;;5.43;1.30;;;13.40;64.50;;;;;;5371548;26;20015;-64
2024/04/11 04:28:57;;;;;;;3.83;1.20;;;13.40;64.80;;;;;;5350274;26;20008;-64
2024/04/11 04:31:25;;;;;;;3.58;1.20;;;13.30;64.90;;;;;;5366640;26;20004;-66
2024/04/11 04:33:54;;;;;;;1.85;1.00;;;13.30;65.10;;;;;;5370411;26;20023;-65
2024/04/11 04:36:25;;;;;;;1.92;0.90;;;13.20;65.10;;;;;;5357908;26;20015;-64
2024/04/11 04:38:52;;;;;;;2.95;1.05;;;13.30;65.20;;;;;;5356485;26;20019;-65
2024/04/11 04:41:18;;;;;;;4.78;1.67;;;13.30;65.10;;;;;;5347620;26;20447;-65
2024/04/11 04:43:45;;;;;;;3.95;1.10;;;13.30;65.20;;;;;;5371160;26;20409;-65
2024/04/11 04:46:15;;;;;;;4.72;1.10;;;13.30;65.30;;;;;;5364343;26;20048;-66
2024/04/11 04:48:41;;;;;;;2.63;1.13;;;13.30;65.40;;;;;;5359542;26;20073;-64
2024/04/11 04:51:08;;;;;;;3.40;1.10;;;13.30;65.50;;;;;;5370499;26;19997;-64
2024/04/11 04:53:34;;;;;;;1.55;0.75;;;13.30;65.60;;;;;;5344911;26;20486;-64
2024/04/11 04:56:01;;;;;;;4.20;1.00;;;13.30;65.60;;;;;;5364325;26;19996;-64
2024/04/11 04:58:27;;;;;;;3.85;0.90;;;13.30;65.70;;;;;;5358918;26;20011;-64
2024/04/11 05:00:53;;;;;;;1.25;0.80;;;13.30;65.60;;;;;;5358915;26;20066;-66
2024/04/11 05:03:18;;;;;;;4.40;1.20;;;13.30;65.70;;;;;;5361306;26;20024;-64
2024/04/11 05:05:44;;;;;;;3.92;1.20;;;13.30;65.70;;;;;;5362397;26;20004;-65
2024/04/11 05:08:13;;;;;;;4.70;1.30;;;13.30;65.90;;;;;;5351380;26;20008;-65
2024/04/11 05:10:42;;;;;;;4.38;1.00;;;13.30;66.00;;;;;;5356699;26;20012;-63
2024/04/11 05:13:11;;;;;;;3.75;1.00;;;13.30;66.40;;;;;;5349835;26;20000;-65
2024/04/11 05:15:37;;;;;;;2.28;0.90;;;13.30;66.40;;;;;;5367939;26;20085;-66
2024/04/11 05:18:04;;;;;;;2.10;1.00;;;13.30;66.30;;;;;;5368931;26;19996;-64
2024/04/11 05:20:33;;;;;;;2.13;0.80;;;13.30;66.50;;;;;;5354072;26;20005;-64
2024/04/11 05:23:04;;;;;;;3.17;1.10;;;13.30;66.60;;;;;;5345335;26;21754;-65
2024/04/11 05:25:32;;;;;;;3.10;0.80;;;13.30;66.70;;;;;;5359492;26;20093;-67
2024/04/11 05:27:57;;;;;;;3.15;1.30;;;13.30;66.60;;;;;;5355803;26;20000;-65
2024/04/11 05:30:23;;;;;;;3.28;1.00;;;13.30;66.80;;;;;;5353862;26;19997;-65
2024/04/11 05:32:49;;;;;;;3.80;1.20;;;13.30;67.00;;;;;;5355326;26;19994;-66
2024/04/11 05:35:15;;;;;;;2.83;1.00;;;13.30;67.00;;;;;;5358551;26;20474;-66
2024/04/11 05:37:45;;;;;;;2.55;1.05;;;13.30;67.30;;;;;;5379305;26;20004;-66
2024/04/11 05:40:14;;;;;;;2.55;0.82;;;13.30;67.40;;;;;;5354523;26;20639;-66
2024/04/11 05:42:45;;;;;;;2.90;1.08;;;13.30;67.30;;;;;;5345561;26;20016;-65
2024/04/11 05:45:11;;;;;;;1.80;0.80;;;13.30;67.50;;;;;;5352932;26;20015;-67
2024/04/11 05:47:37;;;;;;;4.13;1.20;;;13.30;67.70;;;;;;5361916;26;20396;-66
2024/04/11 05:50:04;;;;;;;2.83;0.95;;;13.30;67.70;;;;;;5368095;26;20077;-66
2024/04/11 05:52:31;;;;;;;2.72;0.90;;;13.40;67.70;;;;;;5346424;26;20012;-66
2024/04/11 05:54:57;;;;;;;1.55;0.90;;;13.40;67.70;;;;;;5367241;26;20008;-66
2024/04/11 05:57:24;;;;;;;2.50;1.05;;;13.40;67.60;;;;;;5358850;26;20001;-65
2024/04/11 05:59:51;;;;;;;1.30;0.80;;;13.40;67.90;;;;;;5360417;26;20486;-64
2024/04/11 06:02:17;;;;;;;1.88;0.98;;;13.40;67.80;;;;;;5368678;26;20358;-65
2024/04/11 06:04:43;;;;;;;3.20;0.95;;;13.50;68.40;;;;;;5357046;26;20007;-66
2024/04/11 06:07:09;;;;;;;2.30;0.80;;;13.50;67.80;;;;;;5346595;26;20000;-65
2024/04/11 06:09:35;;;;;;;3.55;0.85;;;13.50;67.80;;;;;;5346787;26;20001;-64
2024/04/11 06:12:05;;;;;;;1.80;0.77;;;13.50;67.70;;;;;;5363508;26;20019;-65
2024/04/11 06:14:30;;;;;;;3.33;0.90;;;13.50;67.90;;;;;;5374218;26;20019;-65
2024/04/11 06:16:56;;;;;;;2.50;0.95;;;13.50;68.10;;;;;;5358653;26;20037;-65
2024/04/11 06:19:21;;;;;;;6.72;1.25;;;13.50;68.00;;;;;;5351161;26;20447;-64
2024/04/11 06:21:53;;;;;;;3.33;1.15;;;13.60;68.40;;;;;;5359642;26;19996;-65
2024/04/11 06:24:20;;;;;;;3.47;1.00;;;13.60;68.50;;;;;;5353923;26;20455;-65
2024/04/11 06:26:45;;;;;;;4.22;1.05;;;13.50;68.50;;;;;;5353740;26;20350;-66
2024/04/11 06:29:11;;;;;;;1.88;0.80;;;13.60;68.60;;;;;;5357752;26;20048;-65
2024/04/11 06:31:38;;;;;;;3.17;1.10;;;13.60;68.50;;;;;;5354742;26;20044;-64
2024/04/11 06:34:04;;;;;;;2.50;1.20;;;13.50;68.90;;;;;;5368943;26;20015;-64
2024/04/11 06:36:33;;;;;;;3.50;1.00;;;13.50;69.10;;;;;;5373191;26;20442;-65
2024/04/11 06:38:59;;;;;;;2.40;1.00;;;13.50;69.80;;;;;;5363916;26;20000;-64
2024/04/11 06:41:25;;;;;;;4.07;1.20;;;13.40;70.80;;;;;;5372769;26;20016;-66
2024/04/11 06:43:51;;;;;;;2.75;1.05;;;13.30;71.10;;;;;;5368021;26;20018;-64
2024/04/11 06:46:18;;;;;;;3.53;0.90;;;13.30;71.40;;;;;;5389165;26;20028;-64
2024/04/11 06:48:45;;;;;;;3.95;1.00;;;13.30;71.60;;;;;;5358701;26;20024;-65
2024/04/11 06:51:14;;;;;;;3.58;1.00;;;13.30;71.80;;;;;;5365701;26;20000;-64
2024/04/11 06:53:43;;;;;;;2.85;1.27;;;13.30;71.70;;;;;;5364150;26;20019;-65
2024/04/11 06:56:11;;;;;;;2.78;1.27;;;13.20;72.70;;;;;;5361983;26;20005;-65
2024/04/11 06:58:38;;;;;;;3.15;1.05;;;13.20;72.80;;;;;;5364716;26;20016;-64
2024/04/11 07:01:08;;;;;;;2.95;1.10;;;13.20;73.20;;;;;;5365881;26;20040;-65
2024/04/11 07:03:39;;;;;;;2.60;0.90;;;13.20;73.60;;;;;;5366527;26;20000;-65
2024/04/11 07:06:21;;;;;;;3.63;1.13;;;13.20;73.60;;;;;;5372523;26;20350;-65
2024/04/11 07:08:54;;;;;;;2.55;1.10;;;13.10;74.00;;;;;;5366279;26;20461;-65
2024/04/11 07:11:27;;;;;;;3.50;1.50;;;13.10;74.00;;;;;;5372745;26;20015;-64
2024/04/11 07:13:54;;;;;;;3.15;1.23;;;13.10;74.60;;;;;;5362535;26;19996;-64
2024/04/11 07:16:32;;;;;;;1.92;1.25;;;13.10;74.80;;;;;;5366747;26;20015;-63
2024/04/11 07:18:58;;;;;;;2.42;0.93;;;13.00;75.00;;;;;;5362446;26;20004;-64
2024/04/11 07:21:25;;;;;;;2.65;0.90;;;13.00;74.90;;;;;;5376051;26;20008;-64
2024/04/11 07:23:55;;;;;;;2.47;1.17;;;13.10;74.70;;;;;;5357624;26;20382;-63
2024/04/11 07:26:24;;;;;;;4.63;1.40;;;13.10;74.70;;;;;;5372062;26;20016;-63
2024/04/11 07:28:51;;;;;;;2.67;1.17;;;13.00;75.40;;;;;;5359148;26;20001;-63
2024/04/11 07:31:17;;;;;;;4.05;1.08;;;13.00;75.70;;;;;;5358099;26;20039;-64
2024/04/11 07:33:43;;;;;;;4.68;1.42;;;12.90;76.20;;;;;;5367966;26;20012;-64
2024/04/11 07:36:13;;;;;;;3.38;1.13;;;12.90;76.80;;;;;;5351182;26;20013;-65
2024/04/11 07:38:40;;;;;;;4.25;1.20;;;12.80;76.90;;;;;;5351458;26;20004;-65
2024/04/11 07:41:18;;;;;;;4.50;1.30;;;12.90;76.70;;;;;;5357232;26;20719;-65
2024/04/11 07:43:45;;;;;;;3.40;1.27;;;12.90;76.90;;;;;;5357017;26;20032;-65
2024/04/11 07:46:13;;;;;;;4.45;1.15;;;12.90;77.10;;;;;;5362420;26;20085;-64
2024/04/11 07:48:51;;;;;;;3.80;1.10;;;12.90;77.80;;;;;;5356351;26;20062;-64
2024/04/11 07:51:18;;;;;;;3.78;1.60;;;12.80;77.20;;;;;;5356217;26;20032;-65
2024/04/11 07:53:46;;;;;;;3.80;1.30;;;12.80;77.90;;;;;;5360976;26;20078;-65
2024/04/11 07:56:19;;;;;;;3.20;1.20;;;12.80;78.10;;;;;;5353340;26;20449;-65
2024/04/11 07:58:45;;;;;;;1.85;1.10;;;12.90;77.90;;;;;;5361430;26;20020;-66
2024/04/11 08:01:11;;;;;;;1.80;0.90;;;12.90;77.50;;;;;;5358623;26;20008;-65
2024/04/11 08:03:37;;;;;;;4.22;1.48;;;13.00;77.50;;;;;;5374474;26;20007;-65
2024/04/11 08:06:03;;;;;;;3.15;1.17;;;13.00;77.30;;;;;;5373205;26;20445;-65
2024/04/11 08:08:29;;;;;;;3.58;1.65;;;13.00;77.80;;;;;;5358292;26;20327;-65
2024/04/11 08:11:02;;;;;;;2.50;1.15;;;13.00;78.20;;;;;;5357749;26;19997;-66
2024/04/11 08:13:32;;;;;;;4.72;1.45;;;13.00;78.50;;;;;;5357424;26;20472;-65
2024/04/11 08:15:58;;;;;;;4.47;1.48;;;13.00;78.90;;;;;;5365985;26;20018;-65
2024/04/11 08:18:27;;;;;;;0.95;0.88;;;13.00;78.70;;;;;;5365231;26;20004;-65
2024/04/11 08:20:55;;;;;;;2.17;0.88;;;13.10;78.40;;;;;;5363259;26;20014;-65
2024/04/11 08:23:22;;;;;;;2.45;1.05;;;13.10;78.00;;;;;;5364829;26;20000;-65
2024/04/11 08:25:55;;;;;;;3.85;1.20;;;13.20;78.00;;;;;;5371649;26;20011;-65
2024/04/11 08:28:21;;;;;;;2.53;1.10;;;13.20;78.10;;;;;;5358862;26;19997;-65
2024/04/11 08:30:47;;;;;;;2.10;1.00;;;13.20;78.00;;;;;;5365983;26;20327;-65
2024/04/11 08:33:14;;;;;;;4.55;1.50;;;13.20;78.10;;;;;;5360408;26;20011;-65
2024/04/11 08:35:44;;;;;;;3.10;1.52;;;13.20;78.50;;;;;;5355535;26;20536;-63
2024/04/11 08:38:12;;;;;;;4.57;1.60;;;13.20;78.70;;;;;;5356305;26;20451;-64
2024/04/11 08:40:40;;;;;;;6.55;1.67;;;13.20;79.30;;;;;;5355582;26;20014;-63
2024/04/11 08:43:09;;;;;;;4.97;1.73;;;13.20;79.20;;;;;;5345951;26;20707;-65
2024/04/11 08:45:35;;;;;;;2.63;1.30;;;13.20;79.30;;;;;;5353804;26;20049;-64
2024/04/11 08:48:02;;;;;;;2.40;0.95;;;13.20;79.30;;;;;;5358757;26;20455;-64
2024/04/11 08:50:29;;;;;;;4.40;1.70;;;13.30;78.90;;;;;;5372598;26;20004;-64
2024/04/11 08:52:56;;;;;;;1.73;1.10;;;13.40;78.90;;;;;;5351766;26;20001;-64
2024/04/11 08:55:22;;;;;;;3.67;1.70;;;13.50;78.70;;;;;;5365081;26;20398;-64
2024/04/11 08:57:49;;;;;;;4.03;1.10;;;13.50;78.80;;;;;;5359972;26;20417;-64
2024/04/11 09:00:21;;;;;;;5.25;1.60;;;13.60;78.70;;;;;;5368052;26;20015;-64
2024/04/11 09:02:48;;;;;;;4.53;1.63;;;13.50;79.30;;;;;;5361090;26;20019;-63
2024/04/11 09:05:14;;;;;;;3.20;1.40;;;13.50;79.80;;;;;;5370324;26;20079;-64
2024/04/11 09:07:43;;;;;;;3.35;1.35;;;13.50;79.70;;;;;;5356561;26;20391;-65
2024/04/11 09:10:09;;;;;;;3.10;1.23;;;13.60;79.60;;;;;;5363130;26;20074;-64
2024/04/11 09:12:34;;;;;;;3.10;1.30;;;13.60;79.20;;;;;;5360059;26;20009;-65
2024/04/11 09:15:07;;;;;;;1.35;0.82;;;13.70;79.10;;;;;;5369825;26;20074;-65
2024/04/11 09:17:46;;;;;;;2.03;1.10;;;13.80;79.00;;;;;;5366153;26;20018;-65
2024/04/11 09:20:19;;;;;;;3.83;1.63;;;13.80;78.80;;;;;;5356356;26;20329;-65
2024/04/11 09:22:50;;;;;;;3.08;1.30;;;13.80;79.30;;;;;;5370286;26;20008;-64
2024/04/11 09:25:22;;;;;;;;;;;13.90;79.30;;;;;;5362764;26;20008;-64
2024/04/11 09:27:54;;;;;;;4.47;2.22;;;13.90;79.40;;;;;;5365364;26;19995;-65
2024/04/11 09:30:21;;;;;;;3.03;1.73;;;13.90;79.90;;;;;;5363621;26;20360;-65
2024/04/11 09:32:51;;;;;;;2.88;1.40;;;13.90;79.90;;;;;;5370918;26;19996;-64
2024/04/11 09:35:20;;;;;;;2.22;1.30;;;14.00;79.70;;;;;;5371034;26;20077;-64
2024/04/11 09:37:49;;;;;;;3.40;1.50;;;14.10;79.40;;;;;;5374252;26;20103;-64
2024/04/11 09:40:19;;;;;;;1.83;1.20;;;14.20;79.50;;;;;;5367339;26;20009;-63
2024/04/11 09:42:47;;;;;;;3.55;1.50;;;14.20;79.30;;;;;;5370842;26;20012;-64
2024/04/11 09:45:18;;;;;;;2.92;1.60;;;14.30;79.20;;;;;;5390231;26;20000;-64
2024/04/11 09:47:47;;;;;;;4.90;1.60;;;14.30;79.50;;;;;;5374270;26;20001;-64
2024/04/11 09:50:16;;;;;;;4.38;1.50;;;14.30;79.60;;;;;;5363962;26;20010;-65
2024/04/11 09:52:44;;;;;;;3.28;1.30;;;14.30;79.70;;;;;;5355435;26;20008;-64
2024/04/11 09:55:15;;;;;;;4.70;1.70;;;14.40;79.80;;;;;;5368672;26;20028;-64
2024/04/11 09:57:46;;;;;;;2.20;1.30;;;14.40;79.80;;;;;;5377547;26;20019;-64
2024/04/11 10:00:42;;;;;;;2.15;1.23;;;14.40;79.60;;;;;;5375230;26;20012;-64
2024/04/11 10:03:05;;;;;;;;;;;14.40;79.60;;;;;;5372703;26;20018;-65
2024/04/11 10:05:37;;;;;;;3.20;1.38;;;14.40;80.00;;;;;;5357488;26;19957;-64
2024/04/11 10:08:03;;;;;;;3.85;2.10;;;14.50;79.90;;;;;;5342698;26;20030;-64
2024/04/11 10:10:30;;;;;;;3.90;2.17;;;14.40;80.40;;;;;;5346401;26;20021;-64
2024/04/11 10:13:05;;;;;;;4.40;1.80;;;14.50;80.50;;;;;;5368384;26;20000;-64
2024/04/11 10:15:33;;;;;;;4.88;1.83;;;14.50;80.50;;;;;;5361796;26;19997;-64
2024/04/11 10:18:09;;;;;;;4.03;2.00;;;14.50;80.50;;;;;;5363859;26;20474;-64
2024/04/11 10:20:42;;;;;;;3.67;1.77;;;14.60;80.50;;;;;;5359236;26;20004;-63
2024/04/11 10:23:09;;;;;;;1.70;1.48;;;14.60;80.60;;;;;;5386257;26;20027;-64
2024/04/11 10:25:38;;;;;;;3.80;1.50;;;14.60;80.40;;;;;;5365924;26;20077;-64
2024/04/11 10:28:18;;;;;;;2.15;1.50;;;14.60;80.50;;;;;;5375116;26;20000;-64
2024/04/11 10:30:50;;;;;;;3.60;1.80;;;14.60;80.60;;;;;;5372733;26;20015;-64
2024/04/11 10:33:29;;;;;;;7.38;2.50;;;14.60;80.70;;;;;;5348655;26;20009;-64
2024/04/11 10:35:57;;;;;;;5.15;2.58;;;14.70;81.10;;;;;;5374823;26;20000;-65
2024/04/11 10:38:27;;;;;;;4.50;2.20;;;14.60;81.50;;;;;;5364098;26;20000;-64
2024/04/11 10:40:54;;;;;;;2.78;1.67;;;14.60;81.80;;;;;;5361489;26;20000;-65
2024/04/11 10:43:24;;;;;;;3.10;1.85;;;14.60;81.60;;;;;;5364253;26;20011;-63
2024/04/11 10:45:50;;;;;;;2.55;1.70;;;14.70;81.40;;;;;;5371698;26;20073;-64
2024/04/11 10:48:17;;;;;;;3.17;1.65;;;14.80;81.30;;;;;;5358916;26;20000;-64
2024/04/11 10:50:44;;;;;;;4.25;2.00;;;14.80;81.40;;;;;;5366318;26;20020;-64
2024/04/11 10:53:12;;;;;;;5.70;3.35;;;14.80;81.40;;;;;;5362406;26;20012;-63
2024/04/11 10:55:43;;;;;;;4.88;2.30;;;14.70;82.40;;;;;;5357177;26;20141;-63
2024/04/11 10:58:13;;;;;;;2.95;1.80;;;14.60;82.40;;;;;;5368655;26;20011;-63
2024/04/11 11:04:00;;;;;;;3.22;2.17;;;14.70;82.80;;;;;;5365714;26;24974;-64
2024/04/11 11:06:25;;;;;;;3.17;2.10;;;14.70;82.40;;;;;;5371958;26;20095;-64
2024/04/11 11:08:59;;;;;;;5.63;3.00;;;14.70;82.50;;;;;;5368126;26;20004;-64
2024/04/11 11:11:26;;;;;;;5.10;2.83;;;14.70;83.10;;;;;;5370160;26;20437;-63
2024/04/11 11:13:54;;;;;;;4.05;2.20;;;14.60;83.50;;;;;;5359805;26;20008;-64
2024/04/11 11:16:26;;;;;;;4.13;2.97;;;14.70;83.40;;;;;;5369317;26;20000;-64
2024/04/11 11:18:52;;;;;;;5.13;2.90;;;14.70;83.60;;;;;;5364490;26;19997;-63
2024/04/11 11:21:22;;;;;;;4.60;3.00;;;14.60;84.00;;;;;;5361958;26;20589;-64
2024/04/11 11:23:59;;;;;;;4.25;2.80;;;14.60;84.30;;;;;;5362936;26;19996;-64
2024/04/11 11:26:36;;;;;;;3.67;2.20;;;14.70;84.30;;;;;;5371717;26;20016;-64
2024/04/11 11:29:09;;;;;;;4.32;2.70;;;14.70;84.50;;;;;;5369453;26;20044;-63
2024/04/11 11:31:38;;;;;;;5.28;3.50;;;14.70;84.60;;;;;;5371333;26;20403;-62
2024/04/11 11:34:09;;;;;;;4.78;3.38;;;14.60;85.90;;;;;;5370722;26;20059;-64
2024/04/11 11:36:45;;;;;;;5.07;3.20;;;14.60;85.80;;;;;;5373617;26;20725;-64
2024/04/11 11:39:17;;;;;;;3.53;2.47;;;14.50;86.10;;;;;;5367596;26;20078;-64
2024/04/11 11:41:47;;;;;;;4.55;2.20;;;14.60;86.00;;;;;;5375395;26;20036;-64
2024/04/11 11:44:21;;;;;;;3.90;2.22;;;14.60;86.00;;;;;;5362875;26;20003;-64
2024/04/11 11:46:50;;;;;;;3.03;1.98;;;14.60;85.80;;;;;;5376722;26;20000;-65
2024/04/11 11:49:18;;;;;;;4.82;2.28;;;14.70;85.70;;;;;;5376565;26;20634;-65
2024/04/11 11:51:46;;;;;;;2.78;1.88;;;14.70;85.80;;;;;;5374172;26;19996;-64
2024/04/11 11:54:12;;;;;;;4.47;3.20;;;14.70;85.60;;;;;;5364591;26;20340;-64
2024/04/11 11:56:42;;;;;;;4.07;2.90;;;14.80;85.90;;;;;;5369542;26;20008;-64
2024/04/11 11:59:08;;;;;;;3.60;2.55;;;14.70;86.40;;;;;;5376509;26;20000;-65
2024/04/11 12:01:41;;;;;;;3.13;2.08;;;14.70;86.30;;;;;;5367089;26;20071;-64
2024/04/11 12:04:10;;;;;;;3.25;2.30;;;14.80;86.10;;;;;;5351823;26;20032;-63
2024/04/11 12:06:37;;;;;;;2.83;2.03;;;14.80;86.00;;;;;;5366518;26;19993;-62
2024/04/11 12:09:10;;;;;;;2.28;1.52;;;14.90;86.00;;;;;;5361064;26;20007;-63
2024/04/11 12:11:54;;;;;;;3.42;2.72;;;14.90;85.80;;;;;;5353978;26;20013;-65
2024/04/11 12:14:34;;;;;;;4.45;2.90;;;14.90;86.10;;;;;;5356495;26;20009;-64
2024/04/11 12:17:04;;;;;;;2.88;2.10;;;14.90;86.30;;;;;;5355161;26;20027;-65
2024/04/11 12:19:35;;;;;;;3.25;2.40;;;14.90;86.30;;;;;;5357866;26;20000;-65
2024/04/11 12:22:11;;;;;;;3.03;2.07;;;14.90;86.30;;;;;;5366426;26;20045;-64
2024/04/11 12:24:39;;;;;;;2.20;1.80;;;14.90;86.30;;;;;;5369067;26;20231;-65
2024/04/11 12:27:05;;;;;;;2.30;1.73;;;15.00;86.20;;;;;;5354287;26;20176;-65
2024/04/11 12:29:31;;;;;;;3.20;2.20;;;15.10;86.10;;;;;;5366058;26;20000;-65
2024/04/11 12:32:02;;;;;;;5.68;4.00;;;15.10;86.10;;;;;;5373055;26;20036;-65
2024/04/11 12:34:32;;;;;;;5.60;3.65;;;15.10;86.90;;;;;;5365566;26;20208;-64
2024/04/11 12:36:58;;;;;;;4.82;2.58;;;15.00;87.00;;;;;;5366519;26;20018;-65
2024/04/11 12:39:32;;;;;;;3.65;2.40;;;15.10;86.90;;;;;;5375638;26;20000;-65
2024/04/11 12:42:00;;;;;;;3.08;2.20;;;15.10;86.80;;;;;;5362271;26;19992;-64
2024/04/11 12:44:35;;;;;;;4.72;3.08;;;15.20;86.80;;;;;;5367355;26;20046;-64
2024/04/11 12:47:13;;;;;;;4.00;2.40;;;15.10;86.90;;;;;;5366147;26;19993;-65
2024/04/11 12:49:49;;;;;;;3.00;1.95;;;15.20;87.00;;;;;;5356640;26;20012;-66
2024/04/11 12:52:22;;;;;;;3.08;2.20;;;15.20;86.80;;;;;;5367656;26;20000;-65
2024/04/11 12:54:58;;;;;;;3.72;2.50;;;15.30;86.70;;;;;;5366290;26;20004;-65
2024/04/11 12:57:28;;;;;;;3.95;2.20;;;15.40;86.70;;;;;;5375863;26;20042;-63
2024/04/11 13:00:07;;;;;;;5.65;3.75;;;15.40;86.40;;;;;;5367646;26;20369;-65
2024/04/11 13:02:39;;;;;;;3.95;3.10;;;15.50;86.70;;;;;;5363258;26;20004;-64
2024/04/11 13:05:13;;;;;;;4.45;3.58;;;15.50;86.80;;;;;;5356727;26;20000;-64
2024/04/11 13:07:42;;;;;;;4.35;3.15;;;15.50;87.50;;;;;;5350345;26;20000;-66
2024/04/11 13:10:08;;;;;;;4.05;3.10;;;15.50;86.90;;;;;;5369569;26;20000;-65
2024/04/11 13:12:43;;;;;;;3.30;2.67;;;15.50;86.90;;;;;;5368873;26;20070;-65